• Join FlightAware (Why Join?)
  • Login
  • US Flag 
08:21PM EDT


 

Airport Tracker/Info


-or-


 

Live Flight TrackerFlight Track Log ✈ UAL4663 ✈ 17-Apr-2013 ✈ KEWR - KRDU

Flight Track Log - Related Links

Times and Time Zones

All times are in EDT time to prevent confusion due to time zone crossing. See the UAL4663 flight status page for this flight to view local times or setup timezone preferences in your user account.

Time Position Orientation Groundspeed Altitude Reporting Facility
EDT Latitude Longitude Course Direction KTS MPH feet Rate Location/Type
05:22PM 40.7500 -74.1167 229° Southwest 221 254 3,100  Level New York TRACON
05:23PM 40.7667 -74.1833 288° West 253 291 5,600 1,380 Climbing New York TRACON
05:24PM 40.2856 -74.1548 194° South  Level FlightAware Approximate
05:24PM 40.7000 -74.2167 201° Southwest 260 299 6,000  Level New York TRACON
05:25PM 40.1796 -74.1901 194° South  Level FlightAware Approximate
05:25PM 40.6167 -74.2500 197° South 281 323 6,100  Level New York TRACON
05:26PM 40.0738 -74.2198 194° South  Level FlightAware Approximate
05:27PM 39.9746 -74.2631 229° Southwest  Level FlightAware Approximate
05:27PM 40.4914 -74.2531 181° South 276 318 6,000  Level New York Center
05:28PM 40.4169 -74.2411 173° South 276 318 6,000  Level New York Center
05:29PM 40.3397 -74.2428 181° South 276 318 6,000 780 Level New York Center
05:30PM 40.2606 -74.2442 181° South 281 323 7,600 2,040 Climbing New York Center
05:31PM 40.1833 -74.2486 183° South 281 323 10,200 1,800 Climbing New York Center
05:32PM 40.1058 -74.2489 180° South 293 337 11,000 1,140 Climbing Washington Center
05:33PM 40.0081 -74.2561 183° South 322 371 12,400 1,500 Climbing Washington Center
05:34PM 39.9297 -74.3225 213° Southwest 332 382 14,100 1,500 Climbing Washington Center
05:35PM 39.8514 -74.3997 217° Southwest 337 388 15,400 1,260 Climbing Washington Center
05:36PM 39.7731 -74.4900 222° Southwest 359 413 16,700 1,200 Climbing Washington Center
05:37PM 39.7031 -74.5828 226° Southwest 371 427 17,800 1,080 Climbing Washington Center
05:38PM 39.6289 -74.6836 226° Southwest 377 434 18,900 1,320 Climbing Washington Center
05:39PM 39.5525 -74.7842 225° Southwest 383 441 20,500 1,380 Climbing Washington Center
05:40PM 39.4739 -74.8844 225° Southwest 388 447 21,700 1,200 Climbing Washington Center
05:41PM 39.3953 -74.9847 225° Southwest 388 447 23,000 1,320 Climbing Washington Center
05:42PM 39.3186 -75.0900 227° Southwest 393 452 24,400 1,200 Climbing Washington Center
05:43PM 39.2397 -75.1922 225° Southwest 399 459 25,400 720 Climbing Washington Center
05:44PM 39.1692 -75.2836 225° Southwest 399 459 25,900 300 Climbing Washington Center
05:45PM 39.0842 -75.3964 226° Southwest 417 480 26,000  Climbing Washington Center
05:46PM 38.9967 -75.5036 224° Southwest 433 498 26,000  Level Washington Center
05:47PM 38.9069 -75.6208 225° Southwest 447 514 26,000  Level Washington Center
05:48PM 38.8506 -75.7675 244° Southwest 452 520 26,000  Level Washington Center
05:49PM 38.8003 -75.9139 246° West 452 520 26,000  Level Washington Center
05:50PM 38.7019 -76.0225 221° Southwest 452 520 26,000  Level Washington Center
05:51PM 38.5975 -76.1150 215° Southwest 463 533 26,000  Level Washington Center
05:52PM 38.4906 -76.2125 216° Southwest 448 516 26,000  Level Washington Center
05:53PM 38.4047 -76.2911 216° Southwest 412 474 26,000  Level Washington Center
05:54PM 38.3144 -76.3775 217° Southwest 406 467 26,000  Level Washington Center
05:55PM 38.2389 -76.4667 223° Southwest 406 467 26,000  Level Washington Center
05:56PM 38.1567 -76.5794 227° Southwest 420 483 26,000  Level Washington Center
05:57PM 38.0722 -76.6997 228° Southwest 445 512 26,000  Level Washington Center
05:58PM 37.9875 -76.8169 227° Southwest 450 518 26,000  Level Washington Center
05:59PM 37.8764 -76.8861 206° Southwest 443 510 26,000 -420 Level Washington Center
06:00PM 37.7569 -76.9367 199° South 443 510 25,200 -900 Descending Washington Center
06:01PM 37.6375 -76.9869 198° South 449 517 24,200 -1,140 Descending Washington Center
06:02PM 37.5097 -77.0397 198° South 449 517 23,000 -960 Descending Washington Center
06:03PM 37.3942 -77.0897 199° South 449 517 22,300 -540 Descending Washington Center
06:04PM 37.2936 -77.1425 203° Southwest 442 509 22,000 -180 Descending Washington Center
06:05PM 37.1778 -77.2211 208° Southwest 436 502 22,000 -60 Level Washington Center
06:06PM 37.0828 -77.2894 210° Southwest 436 502 21,900 -300 Descending Washington Center
06:07PM 36.9817 -77.3650 211° Southwest 436 502 21,500 -480 Descending Washington Center
06:08PM 36.8803 -77.4406 211° Southwest 430 495 21,000 -540 Descending Washington Center
06:09PM 36.7769 -77.5186 211° Southwest 430 495 20,500 -720 Descending Washington Center
06:10PM 36.6639 -77.5392 188° South 415 478 19,600 -1,020 Descending Washington Center
06:11PM 36.5450 -77.5386 180° South 413 475 18,500 -1,380 Descending Washington Center
06:12PM 36.4342 -77.5617 190° South 418 481 16,900 -1,800 Descending Washington Center
06:13PM 36.3489 -77.6578 222° Southwest 373 429 15,000 -1,020 Descending Washington Center
06:14PM 36.2722 -77.7483 224° Southwest 379 436 14,900 -840 Descending Washington Center
06:15PM 36.2306 -77.8631 246° West 367 422 13,400 -1,380 Descending Washington Center
06:15PM 36.2250 -77.9403 265° West 372 428 12,700 -1,200 Descending Washington Center
06:16PM 36.2219 -77.9889 266° West 356 410 12,200 -1,500 Descending Washington Center
06:16PM 36.2039 -78.0528 251° West 328 377 11,200 -1,320 Descending Washington Center
06:17PM 36.1947 -78.0936 254° West 351 404 10,900 -1,140 Descending Washington Center
06:17PM 36.1700 -78.1675 248° West 303 349 10,000 -1,140 Descending Washington Center
06:18PM 36.1633 -78.1906 250° West 315 362 9,800 -1,200 Descending Washington Center
06:18PM 36.1411 -78.2542 247° West 268 308 8,800 -1,200 Descending Washington Center
06:19PM 36.1367 -78.2642 241° Southwest 290 334 8,600 -1,620 Descending Washington Center
06:19PM 36.1100 -78.3378 246° West 266 306 7,200 -1,500 Descending Washington Center
06:20PM 36.0808 -78.4267 248° West 263 303 6,000 -1,140 Descending Washington Center
06:21PM 36.0475 -78.5078 243° Southwest 262 302 5,000 -1,200 Descending Washington Center
06:22PM 36.0144 -78.5836 242° Southwest 257 296 3,600 -1,200 Descending Washington Center
06:23PM 35.9811 -78.6567 241° Southwest 241 277 2,600 -840 Descending Washington Center
06:24PM 35.9486 -78.7094 233° Southwest 179 206 1,900 -720 Descending Washington Center